createdAt,value
2022-08-17T00:00:43.601Z,99716.72
2022-08-17T00:03:15.187Z,99714.72
2022-08-17T00:05:48.498Z,99716.81
2022-08-17T00:08:18.924Z,99717.88
2022-08-17T00:10:50.140Z,99719.97
2022-08-17T00:13:24.185Z,99725.94
2022-08-17T00:15:53.949Z,99723.38
2022-08-17T00:19:06.395Z,99730.28
2022-08-17T00:21:13.440Z,99724.91
2022-08-17T00:23:48.995Z,99724.09
2022-08-17T00:26:44.242Z,99730.75
2022-08-17T00:29:08.964Z,99725.34
2022-08-17T00:31:38.398Z,99722.91
2022-08-17T00:34:08.893Z,99716.69
2022-08-17T00:36:37.992Z,99726.28
2022-08-17T00:39:06.816Z,99723.81
2022-08-17T00:41:40.094Z,99726.72
2022-08-17T00:44:12.396Z,99732.34
2022-08-17T00:46:43.193Z,99730.97
2022-08-17T00:49:15.760Z,99731.41
2022-08-17T00:51:48.061Z,99735.16
2022-08-17T00:54:20.668Z,99734.56
2022-08-17T00:56:55.236Z,99738.91
2022-08-17T00:59:26.901Z,99730.09
2022-08-17T01:01:55.278Z,99731.16
2022-08-17T01:04:24.236Z,99727.03
2022-08-17T01:06:53.232Z,99735.34
2022-08-17T01:09:22.388Z,99735.34
2022-08-17T01:11:53.162Z,99732.91
2022-08-17T01:14:22.476Z,99735.81
2022-08-17T01:16:52.360Z,99737.91
2022-08-17T01:19:21.777Z,99736.03
2022-08-17T01:21:54.016Z,99735.22
2022-08-17T01:24:24.133Z,99729.81
2022-08-17T01:26:52.829Z,99735.22
2022-08-17T01:29:25.856Z,99731.91
2022-08-17T01:31:56.492Z,99727.59
2022-08-17T01:34:35.100Z,99738.81
2022-08-17T01:37:12.692Z,99742.53
2022-08-17T01:39:45.942Z,99739.84
2022-08-17T01:42:20.060Z,99737.41
2022-08-17T01:44:48.948Z,99738.66
2022-08-17T01:47:17.742Z,99752.13
2022-08-17T01:49:46.204Z,99756.69
2022-08-17T01:52:15.292Z,99751.53
2022-08-17T01:54:47.259Z,99748.81
2022-08-17T01:57:16.424Z,99740.53
2022-08-17T01:59:45.249Z,99742.19
2022-08-17T02:02:30.573Z,99739.72
2022-08-17T02:05:00.244Z,99743.00
2022-08-17T02:07:29.187Z,99745.47
2022-08-17T02:09:59.625Z,99747.94
2022-08-17T02:12:37.624Z,99749.22
2022-08-17T02:15:12.489Z,99749.22
2022-08-17T02:17:41.847Z,99753.16
2022-08-17T02:20:11.856Z,99751.31
2022-08-17T02:22:41.619Z,99749.97
2022-08-17T02:25:13.684Z,99757.66
2022-08-17T02:27:42.408Z,99755.19
2022-08-17T02:31:01.409Z,99757.66
2022-08-17T02:33:04.239Z,99753.91
2022-08-17T02:35:35.016Z,99754.56
2022-08-17T02:38:06.175Z,99756.19
2022-08-17T02:40:37.418Z,99756.53
2022-08-17T02:43:06.452Z,99756.78
2022-08-17T02:45:35.485Z,99765.47
2022-08-17T02:48:05.461Z,99762.53
2022-08-17T02:50:34.548Z,99760.44
2022-08-17T02:53:04.759Z,99763.47
2022-08-17T02:55:35.602Z,99762.13
2022-08-17T02:58:05.858Z,99765.53
2022-08-17T03:00:37.187Z,99759.09
2022-08-17T03:03:06.995Z,99758.41
2022-08-17T03:05:37.125Z,99755.97
2022-08-17T03:08:07.098Z,99754.06
2022-08-17T03:10:40.167Z,99758.88
2022-08-17T03:13:10.318Z,99750.69
2022-08-17T03:15:40.763Z,99756.13
2022-08-17T03:18:24.638Z,99764.53
2022-08-17T03:20:55.331Z,99760.06
2022-08-17T03:23:25.589Z,99762.53
2022-08-17T03:25:54.950Z,99774.31
2022-08-17T03:28:26.324Z,99769.22
2022-08-17T03:30:55.235Z,99765.72
2022-08-17T03:33:24.005Z,99774.44
2022-08-17T03:35:53.249Z,99772.16
2022-08-17T03:38:22.136Z,99772.97
2022-08-17T03:40:58.527Z,99784.13
2022-08-17T03:43:31.082Z,99782.50
2022-08-17T03:46:28.402Z,99783.97
2022-08-17T03:49:22.071Z,99782.91
2022-08-17T03:52:08.454Z,99788.94
2022-08-17T03:54:54.718Z,99791.16
2022-08-17T03:57:23.446Z,99788.69
2022-08-17T03:59:53.925Z,99794.56
2022-08-17T04:02:26.074Z,99793.22
2022-08-17T04:04:54.619Z,99800.06
2022-08-17T04:07:32.099Z,99803.03
2022-08-17T04:10:01.138Z,99799.19
2022-08-17T04:12:31.453Z,99803.09
2022-08-17T04:15:01.671Z,99803.69
2022-08-17T04:17:30.783Z,99803.28
2022-08-17T04:19:59.490Z,99802.09
2022-08-17T04:22:31.204Z,99807.75
2022-08-17T04:25:17.466Z,99808.63
2022-08-17T04:27:46.337Z,99803.72
2022-08-17T04:30:17.176Z,99801.47
2022-08-17T04:33:09.852Z,99797.25
2022-08-17T04:35:41.411Z,99800.78
2022-08-17T04:38:12.089Z,99797.38
2022-08-17T04:40:58.408Z,99795.34
2022-08-17T04:43:28.369Z,99794.19
2022-08-17T04:46:03.067Z,99789.69
2022-08-17T04:48:36.973Z,99783.22
2022-08-17T04:51:10.182Z,99784.66
2022-08-17T04:53:40.505Z,99782.22
2022-08-17T04:56:16.104Z,99783.75
2022-08-17T04:58:46.292Z,99784.09
2022-08-17T05:01:17.623Z,99786.28
2022-08-17T05:03:53.392Z,99791.22
2022-08-17T05:06:22.301Z,99793.22
2022-08-17T05:08:50.907Z,99796.81
2022-08-17T05:11:19.789Z,99797.00
2022-08-17T05:13:50.457Z,99795.94
2022-08-17T05:16:21.875Z,99781.22
2022-08-17T05:18:50.982Z,99787.63
2022-08-17T05:21:20.671Z,99788.34
2022-08-17T05:23:53.960Z,99792.16
2022-08-17T05:26:26.925Z,99787.88
2022-08-17T05:29:00.401Z,99791.75
2022-08-17T05:31:33.139Z,99792.56
2022-08-17T05:34:02.034Z,99801.06
2022-08-17T05:36:42.368Z,99799.53
2022-08-17T05:39:16.881Z,99801.63
2022-08-17T05:41:48.493Z,99796.88
2022-08-17T05:44:17.985Z,99800.97
2022-08-17T05:46:50.630Z,99807.34
2022-08-17T05:49:22.608Z,99808.38
2022-08-17T05:52:09.796Z,99812.03
2022-08-17T05:54:48.602Z,99813.09
2022-08-17T05:57:32.896Z,99806.28
2022-08-17T06:00:08.480Z,99813.78
2022-08-17T06:02:59.121Z,99815.38
2022-08-17T06:05:50.621Z,99812.91
2022-08-17T06:08:30.390Z,99810.34
2022-08-17T06:11:02.002Z,99815.31
2022-08-17T06:13:42.884Z,99815.50
2022-08-17T06:16:25.946Z,99812.13
2022-08-17T06:19:07.929Z,99814.75
2022-08-17T06:21:40.542Z,99810.56
2022-08-17T06:24:20.423Z,99815.41
2022-08-17T06:26:49.892Z,99817.53
2022-08-17T06:29:27.137Z,99817.09
2022-08-17T06:31:55.591Z,99825.19
2022-08-17T06:34:25.713Z,99821.06
2022-08-17T06:36:55.875Z,99815.03
2022-08-17T06:39:33.926Z,99813.25
2022-08-17T06:43:02.055Z,99811.88
2022-08-17T06:45:05.315Z,99820.28
2022-08-17T06:47:37.907Z,99813.41
2022-08-17T06:50:15.651Z,99807.78
2022-08-17T06:52:52.589Z,99803.44
2022-08-17T06:55:26.333Z,99802.09
2022-08-17T06:57:58.739Z,99806.72
2022-08-17T07:00:33.631Z,99803.16
2022-08-17T07:03:07.134Z,99813.50
2022-08-17T07:05:45.635Z,99805.97
2022-08-17T07:08:19.605Z,99806.91
2022-08-17T07:10:51.182Z,99816.72
2022-08-17T07:13:32.698Z,99819.69
2022-08-17T07:16:09.325Z,99822.69
2022-08-17T07:18:38.056Z,99824.59
2022-08-17T07:21:17.974Z,99817.84
2022-08-17T07:24:02.351Z,99818.38
2022-08-17T07:26:31.022Z,99817.84
2022-08-17T07:29:01.107Z,99819.78
2022-08-17T07:31:33.579Z,99811.78
2022-08-17T07:34:14.611Z,99817.84
2022-08-17T07:36:44.736Z,99816.28
2022-08-17T07:39:13.525Z,99818.84
2022-08-17T07:41:53.047Z,99812.97
2022-08-17T07:44:26.394Z,99811.72
2022-08-17T07:47:12.910Z,99811.00
2022-08-17T07:49:44.782Z,99806.06
2022-08-17T07:52:51.409Z,99808.50
2022-08-17T07:55:31.872Z,99805.03
2022-08-17T07:58:01.929Z,99806.84
2022-08-17T08:00:32.004Z,99807.22
2022-08-17T08:03:04.919Z,99812.06
2022-08-17T08:05:49.870Z,99809.28
2022-08-17T08:08:40.905Z,99811.69
2022-08-17T08:11:15.408Z,99809.44
2022-08-17T08:13:45.879Z,99810.13
2022-08-17T08:16:25.132Z,99811.03
2022-08-17T08:18:57.793Z,99802.25
2022-08-17T08:21:33.287Z,99802.00
2022-08-17T08:24:15.665Z,99804.91
2022-08-17T08:26:47.922Z,99813.00
2022-08-17T08:29:28.470Z,99805.47
2022-08-17T08:32:14.991Z,99811.25
2022-08-17T08:35:02.314Z,99819.75
2022-08-17T08:37:43.179Z,99816.25
2022-08-17T08:40:27.046Z,99810.16
2022-08-17T08:43:04.648Z,99820.00
2022-08-17T08:45:39.762Z,99818.22
2022-08-17T08:48:46.073Z,99814.94
2022-08-17T08:51:11.974Z,99811.69
2022-08-17T08:53:45.974Z,99816.19
2022-08-17T08:56:21.450Z,99809.69
2022-08-17T08:58:54.829Z,99809.28
2022-08-17T09:01:29.785Z,99813.13
2022-08-17T09:04:25.733Z,99822.59
2022-08-17T09:07:10.188Z,99823.59
2022-08-17T09:09:46.276Z,99822.91
2022-08-17T09:12:22.881Z,99817.41
2022-08-17T09:14:57.011Z,99817.75
2022-08-17T09:17:32.679Z,99821.06
2022-08-17T09:20:05.432Z,99824.16
2022-08-17T09:22:38.458Z,99818.50
2022-08-17T09:25:11.262Z,99827.16
2022-08-17T09:27:50.020Z,99823.59
2022-08-17T09:30:19.600Z,99824.78
2022-08-17T09:32:55.378Z,99828.00
2022-08-17T09:35:33.773Z,99822.47
2022-08-17T09:38:17.633Z,99822.09
2022-08-17T09:40:50.973Z,99826.38
2022-08-17T09:43:30.670Z,99833.47
2022-08-17T09:46:00.338Z,99832.28
2022-08-17T09:48:30.038Z,99818.78
2022-08-17T09:51:05.843Z,99824.59
2022-08-17T09:53:37.325Z,99828.22
2022-08-17T09:56:28.479Z,99827.81
2022-08-17T09:59:22.564Z,99820.66
2022-08-17T10:01:57.141Z,99816.31
2022-08-17T10:04:37.870Z,99822.41
2022-08-17T10:07:11.612Z,99819.06
2022-08-17T10:09:48.936Z,99824.06
2022-08-17T10:12:29.933Z,99820.72
2022-08-17T10:15:19.175Z,99824.03
2022-08-17T10:18:03.970Z,99825.53
2022-08-17T10:20:38.071Z,99820.59
2022-08-17T10:23:29.560Z,99814.25
2022-08-17T10:26:14.226Z,99824.78
2022-08-17T10:28:48.394Z,99823.78
2022-08-17T10:31:35.963Z,99817.69
2022-08-17T10:34:20.314Z,99828.44
2022-08-17T10:36:54.799Z,99817.56
2022-08-17T10:39:30.671Z,99827.00
2022-08-17T10:42:04.921Z,99820.34
2022-08-17T10:44:42.544Z,99826.41
2022-08-17T10:47:15.478Z,99821.31
2022-08-17T10:49:48.027Z,99820.53
2022-08-17T10:52:48.563Z,99815.72
2022-08-17T10:55:20.123Z,99821.94
2022-08-17T10:57:50.818Z,99815.75
2022-08-17T11:01:12.922Z,99818.63
2022-08-17T11:03:54.938Z,99817.75
2022-08-17T11:06:33.515Z,99813.38
2022-08-17T11:09:21.696Z,99807.72
2022-08-17T11:12:09.297Z,99802.88
2022-08-17T11:14:48.632Z,99805.78
2022-08-17T11:17:30.511Z,99806.03
2022-08-17T11:20:15.288Z,99805.47
2022-08-17T11:23:14.742Z,99808.63
2022-08-17T11:25:45.114Z,99808.16
2022-08-17T11:28:17.971Z,99804.31
2022-08-17T11:30:52.103Z,99812.25
2022-08-17T11:33:52.496Z,99799.72
2022-08-17T11:36:32.337Z,99799.38
2022-08-17T11:39:06.201Z,99793.75
2022-08-17T11:41:40.548Z,99802.91
2022-08-17T11:44:26.868Z,99797.59
2022-08-17T11:47:26.738Z,99795.97
2022-08-17T11:50:41.821Z,99791.91
2022-08-17T11:54:03.524Z,99794.44
2022-08-17T11:56:44.673Z,99786.94
2022-08-17T11:59:50.631Z,99788.94
2022-08-17T12:02:39.019Z,99780.25
2022-08-17T12:05:28.442Z,99794.56
2022-08-17T12:08:07.231Z,99797.44
2022-08-17T12:10:49.922Z,99783.81
2022-08-17T12:13:19.861Z,99797.63
2022-08-17T12:15:50.626Z,99785.91
2022-08-17T12:18:24.645Z,99794.78
2022-08-17T12:21:12.230Z,99793.28
2022-08-17T12:23:44.590Z,99789.72
2022-08-17T12:26:19.578Z,99788.84
2022-08-17T12:28:49.364Z,99788.16
2022-08-17T12:31:24.672Z,99789.44
2022-08-17T12:33:54.231Z,99787.78
2022-08-17T12:36:25.943Z,99789.63
2022-08-17T12:38:59.674Z,99790.06
2022-08-17T12:41:47.152Z,99794.97
2022-08-17T12:44:18.293Z,99784.78
2022-08-17T12:46:50.734Z,99776.28
2022-08-17T12:49:26.585Z,99780.53
2022-08-17T12:52:02.168Z,99784.25
2022-08-17T12:54:39.313Z,99782.47
2022-08-17T12:57:13.787Z,99788.28
2022-08-17T12:59:45.194Z,99776.88
2022-08-17T13:02:22.236Z,99784.47
2022-08-17T13:04:50.771Z,99783.50
2022-08-17T13:07:33.988Z,99778.69
2022-08-17T13:10:02.984Z,99779.28
2022-08-17T13:12:34.042Z,99777.06
2022-08-17T13:15:03.016Z,99774.88
2022-08-17T13:17:36.074Z,99773.31
2022-08-17T13:20:07.010Z,99769.66
2022-08-17T13:22:35.371Z,99773.50
2022-08-17T13:25:07.492Z,99761.72
2022-08-17T13:27:38.422Z,99769.09
2022-08-17T13:30:12.891Z,99761.06
2022-08-17T13:32:45.028Z,99769.41
2022-08-17T13:35:39.386Z,99770.38
2022-08-17T13:38:11.424Z,99775.63
2022-08-17T13:40:49.165Z,99776.78
2022-08-17T13:43:48.654Z,99779.41
2022-08-17T13:46:21.979Z,99767.94
2022-08-17T13:49:00.317Z,99777.59
2022-08-17T13:51:32.758Z,99784.13
2022-08-17T13:54:07.858Z,99772.44
2022-08-17T13:56:40.920Z,99777.97
2022-08-17T13:59:13.871Z,99774.53
2022-08-17T14:01:47.442Z,99780.66
2022-08-17T14:04:24.982Z,99769.69
2022-08-17T14:06:59.958Z,99769.50
2022-08-17T14:09:34.890Z,99768.91
2022-08-17T14:12:08.647Z,99769.28
2022-08-17T14:14:38.878Z,99768.19
2022-08-17T14:17:07.897Z,99773.59
2022-08-17T14:19:36.845Z,99774.31
2022-08-17T14:22:06.462Z,99766.19
2022-08-17T14:24:40.000Z,99775.31
2022-08-17T14:27:12.130Z,99777.44
2022-08-17T14:29:42.686Z,99769.38
2022-08-17T14:32:19.258Z,99770.19
2022-08-17T14:34:49.654Z,99780.75
2022-08-17T14:37:18.713Z,99774.91
2022-08-17T14:39:47.586Z,99771.16
2022-08-17T14:42:18.589Z,99772.91
2022-08-17T14:44:48.779Z,99764.13
2022-08-17T14:47:17.596Z,99773.50
2022-08-17T14:49:48.467Z,99774.16
2022-08-17T14:52:21.931Z,99767.81
2022-08-17T14:54:52.396Z,99765.84
2022-08-17T14:57:33.196Z,99763.47
2022-08-17T15:00:05.238Z,99764.47
2022-08-17T15:02:45.597Z,99755.16
2022-08-17T15:05:15.756Z,99771.28
2022-08-17T15:07:44.719Z,99768.34
2022-08-17T15:10:13.457Z,99770.53
2022-08-17T15:12:42.394Z,99757.50
2022-08-17T15:15:15.120Z,99768.88
2022-08-17T15:17:45.917Z,99770.09
2022-08-17T15:20:17.170Z,99771.06
2022-08-17T15:22:46.546Z,99763.97
2022-08-17T15:25:15.776Z,99765.19
2022-08-17T15:27:44.600Z,99754.25
2022-08-17T15:30:15.719Z,99763.75
2022-08-17T15:32:50.864Z,99759.91
2022-08-17T15:35:27.068Z,99770.19
2022-08-17T15:38:04.913Z,99771.00
2022-08-17T15:40:38.060Z,99764.16
2022-08-17T15:43:07.541Z,99767.75
2022-08-17T15:45:37.702Z,99760.91
2022-08-17T15:48:07.004Z,99762.78
2022-08-17T15:50:36.245Z,99762.97
2022-08-17T15:53:05.547Z,99767.13
2022-08-17T15:55:34.555Z,99759.25
2022-08-17T15:58:03.430Z,99761.25
2022-08-17T16:00:36.432Z,99767.63
2022-08-17T16:03:57.342Z,99773.72
2022-08-17T16:06:12.197Z,99773.47
2022-08-17T16:08:43.826Z,99774.34
2022-08-17T16:11:13.873Z,99774.59
2022-08-17T16:13:42.087Z,99779.50
2022-08-17T16:16:20.709Z,99773.56
2022-08-17T16:18:54.705Z,99778.16
2022-08-17T16:21:42.932Z,99779.97
2022-08-17T16:24:13.232Z,99783.50
2022-08-17T16:26:42.476Z,99784.50
2022-08-17T16:29:11.586Z,99779.56
2022-08-17T16:31:41.958Z,99786.53
2022-08-17T16:34:17.045Z,99779.13
2022-08-17T16:36:55.741Z,99775.13
2022-08-17T16:39:29.204Z,99776.53
2022-08-17T16:41:58.556Z,99783.19
2022-08-17T16:44:29.101Z,99776.41
2022-08-17T16:46:58.370Z,99782.84
2022-08-17T16:49:37.465Z,99789.91
2022-08-17T16:52:10.460Z,99785.31
2022-08-17T16:54:43.919Z,99794.75
2022-08-17T16:57:13.669Z,99798.91
2022-08-17T16:59:47.839Z,99811.50
2022-08-17T17:02:17.598Z,99804.63
2022-08-17T17:04:52.189Z,99807.22
2022-08-17T17:07:53.434Z,99820.06
2022-08-17T17:10:24.720Z,99819.16
2022-08-17T17:13:02.006Z,99816.13
2022-08-17T17:15:43.196Z,99825.59
2022-08-17T17:18:12.230Z,99815.09
2022-08-17T17:20:47.519Z,99818.69
2022-08-17T17:23:25.077Z,99815.88
2022-08-17T17:26:06.655Z,99823.94
2022-08-17T17:28:43.536Z,99824.84
2022-08-17T17:31:16.360Z,99828.69
2022-08-17T17:33:48.431Z,99836.34
2022-08-17T17:36:26.697Z,99843.66
2022-08-17T17:39:00.251Z,99844.41
2022-08-17T17:41:32.058Z,99848.94
2022-08-17T17:44:04.444Z,99857.81
2022-08-17T17:46:35.479Z,99862.59
2022-08-17T17:49:04.736Z,99864.91
2022-08-17T17:52:03.668Z,99868.44
2022-08-17T17:54:38.300Z,99865.38
2022-08-17T17:57:12.227Z,99873.44
2022-08-17T17:59:46.455Z,99874.41
2022-08-17T18:02:39.714Z,99871.09
2022-08-17T18:05:17.626Z,99876.69
2022-08-17T18:07:53.295Z,99872.28
2022-08-17T18:10:30.068Z,99883.59
2022-08-17T18:13:11.514Z,99897.84
2022-08-17T18:15:51.142Z,99899.97
2022-08-17T18:18:37.859Z,99897.94
2022-08-17T18:21:16.787Z,99889.75
2022-08-17T18:23:54.998Z,99895.41
2022-08-17T18:26:55.095Z,99890.25
2022-08-17T18:29:42.413Z,99890.19
2022-08-17T18:32:29.724Z,99889.56
2022-08-17T18:35:01.489Z,99891.63
2022-08-17T18:37:48.865Z,99895.59
2022-08-17T18:40:37.737Z,99888.78
2022-08-17T18:43:11.216Z,99901.72
2022-08-17T18:45:44.051Z,99901.63
2022-08-17T18:48:21.722Z,99908.31
2022-08-17T18:50:51.458Z,99911.31
2022-08-17T18:53:33.512Z,99903.69
2022-08-17T18:56:34.058Z,99913.09
2022-08-17T18:59:17.930Z,99917.94
2022-08-17T19:02:05.145Z,99913.56
2022-08-17T19:04:41.480Z,99921.59
2022-08-17T19:07:25.155Z,99920.75
2022-08-17T19:09:58.258Z,99923.97
2022-08-17T19:12:32.310Z,99925.28
2022-08-17T19:15:01.537Z,99927.41
2022-08-17T19:17:41.277Z,99927.34
2022-08-17T19:20:16.138Z,99926.75
2022-08-17T19:22:55.645Z,99930.22
2022-08-17T19:25:28.185Z,99929.06
2022-08-17T19:28:03.546Z,99933.41
2022-08-17T19:30:32.916Z,99936.13
2022-08-17T19:33:02.992Z,99931.78
2022-08-17T19:35:42.217Z,99937.19
2022-08-17T19:38:19.273Z,99937.09
2022-08-17T19:40:58.701Z,99936.78
2022-08-17T19:43:35.053Z,99941.38
2022-08-17T19:46:11.941Z,99942.69
2022-08-17T19:48:46.677Z,99948.25
2022-08-17T19:51:21.241Z,99953.56
2022-08-17T19:54:05.532Z,99955.59
2022-08-17T19:56:41.187Z,99953.84
2022-08-17T19:59:15.274Z,99957.44
2022-08-17T20:01:47.935Z,99952.78
2022-08-17T20:04:22.662Z,99957.94
2022-08-17T20:07:04.936Z,99960.75
2022-08-17T20:12:08.045Z,99961.28
2022-08-17T20:14:53.388Z,99969.16
2022-08-17T20:17:28.360Z,99967.72
2022-08-17T20:20:03.540Z,99972.44
2022-08-17T20:22:49.656Z,99968.31
2022-08-17T20:25:30.249Z,99970.91
2022-08-17T20:28:05.716Z,99967.03
2022-08-17T20:30:39.271Z,99975.84
2022-08-17T20:33:12.490Z,99970.22
2022-08-17T20:36:02.548Z,99977.63
2022-08-17T20:38:40.957Z,99975.63
2022-08-17T20:41:15.760Z,99979.38
2022-08-17T20:43:49.100Z,99972.81
2022-08-17T20:46:28.252Z,99976.56
2022-08-17T20:48:59.042Z,99975.50
2022-08-17T20:51:32.206Z,99979.50
2022-08-17T20:54:09.572Z,99992.63
2022-08-17T20:56:49.717Z,99988.88
2022-08-17T20:59:56.400Z,100000.06
2022-08-17T21:02:28.481Z,100001.22
2022-08-17T21:05:04.049Z,100003.69
2022-08-17T21:07:59.934Z,100000.88
2022-08-17T21:10:38.004Z,100006.59
2022-08-17T21:13:30.735Z,100016.09
2022-08-17T21:16:02.531Z,100014.25
2022-08-17T21:18:38.686Z,100019.75
2022-08-17T21:21:19.355Z,100011.78
2022-08-17T21:23:59.603Z,100016.34
2022-08-17T21:26:32.839Z,100022.56
2022-08-17T21:29:29.774Z,100024.81
2022-08-17T21:32:24.208Z,100029.72
2022-08-17T21:35:27.380Z,100029.47
2022-08-17T21:38:03.701Z,100025.50
2022-08-17T21:40:34.569Z,100022.09
2022-08-17T21:43:09.171Z,100022.34
2022-08-17T21:45:41.338Z,100008.25
2022-08-17T21:48:14.896Z,100002.75
2022-08-17T21:50:48.716Z,100007.56
2022-08-17T21:53:27.046Z,100012.25
2022-08-17T21:55:59.305Z,100007.44
2022-08-17T21:58:30.955Z,100003.56
2022-08-17T22:01:15.210Z,100007.78
2022-08-17T22:03:43.990Z,100003.09
2022-08-17T22:06:27.743Z,100003.78
2022-08-17T22:09:05.745Z,99995.94
2022-08-17T22:11:52.625Z,100002.03
2022-08-17T22:14:22.650Z,99998.97
2022-08-17T22:17:07.691Z,99998.84
2022-08-17T22:19:36.937Z,99996.22
2022-08-17T22:22:08.546Z,100001.28
2022-08-17T22:24:37.983Z,99996.81
2022-08-17T22:27:11.718Z,100004.06
2022-08-17T22:29:59.067Z,99999.13
2022-08-17T22:32:38.077Z,99997.94
2022-08-17T22:35:37.505Z,99991.59
2022-08-17T22:38:31.033Z,99992.31
2022-08-17T22:41:16.704Z,99990.06
2022-08-17T22:43:45.737Z,99985.34
2022-08-17T22:46:15.084Z,99984.19
2022-08-17T22:48:49.320Z,99979.25
2022-08-17T22:51:20.957Z,99983.47
2022-08-17T22:54:10.689Z,99979.34
2022-08-17T22:56:57.235Z,99969.84
2022-08-17T22:59:44.977Z,99976.50
2022-08-17T23:02:20.471Z,99971.34
2022-08-17T23:04:52.513Z,99972.41
2022-08-17T23:07:22.041Z,99967.47
2022-08-17T23:09:53.164Z,99970.63
2022-08-17T23:12:26.509Z,99971.66
2022-08-17T23:15:00.718Z,99960.91
2022-08-17T23:17:33.849Z,99963.84
2022-08-17T23:20:08.512Z,99956.81
2022-08-17T23:22:37.859Z,99968.63
2022-08-17T23:25:28.037Z,99966.13
2022-08-17T23:27:58.558Z,99960.16
2022-08-17T23:30:28.595Z,99963.09
2022-08-17T23:32:59.627Z,99960.25
2022-08-17T23:35:40.149Z,99959.91
2022-08-17T23:38:09.906Z,99959.66
2022-08-17T23:40:40.901Z,99959.03
2022-08-17T23:43:23.665Z,99951.41
2022-08-17T23:45:55.145Z,99951.66
2022-08-17T23:48:34.973Z,99955.38
2022-08-17T23:51:12.234Z,99947.31
2022-08-17T23:53:46.286Z,99947.53
2022-08-17T23:56:18.703Z,99944.22
2022-08-17T23:58:47.153Z,99943.88
